Time;durP1;ratioP1;P1;durP2;ratioP2;P2;SDS_P1;SDS_P2;PMS_P1;PMS_P2;Temp;Humidity;BMP_temperature;BMP_pressure;BME280_temperature;BME280_humidity;BME280_pressure;Samples;Min_cycle;Max_cycle;Signal;HPM_P1;HPM_P2
2022/04/30 00:01:01;;;;;;;18.00;11.00;;;;;;;14.22;90.18;95701.47;5154413;27;20220;-58
2022/04/30 00:03:28;;;;;;;12.33;10.43;;;;;;;14.20;88.58;95696.38;5154186;27;20186;-58
2022/04/30 00:05:56;;;;;;;15.30;11.00;;;;;;;14.15;89.87;95705.09;5154264;27;20202;-59
2022/04/30 00:08:22;;;;;;;16.17;10.67;;;;;;;14.17;90.51;95699.94;5154707;27;20206;-58
2022/04/30 00:10:48;;;;;;;16.97;10.77;;;;;;;14.06;91.34;95704.84;5154351;27;20176;-58
2022/04/30 00:13:14;;;;;;;15.10;10.70;;;;;;;14.06;92.01;95704.84;5154184;27;20225;-58
2022/04/30 00:15:39;;;;;;;14.97;10.60;;;;;;;14.00;92.30;95694.75;5154190;27;20185;-58
2022/04/30 00:18:05;;;;;;;13.43;9.70;;;;;;;14.09;91.92;95701.28;5153851;27;20181;-58
2022/04/30 00:20:32;;;;;;;13.83;10.60;;;;;;;14.20;91.71;95690.88;5154649;27;20185;-57
2022/04/30 00:22:57;;;;;;;14.07;10.30;;;;;;;14.27;90.40;95698.28;5153693;27;20188;-58
2022/04/30 00:25:23;;;;;;;14.00;10.67;;;;;;;14.31;90.84;95694.25;5144009;27;20211;-58
2022/04/30 00:27:49;;;;;;;14.17;9.87;;;;;;;14.31;91.02;95694.25;5151922;27;20185;-58
2022/04/30 00:30:15;;;;;;;15.70;10.10;;;;;;;14.19;90.95;95696.78;5133615;27;20186;-58
2022/04/30 00:32:41;;;;;;;12.70;9.27;;;;;;;13.94;92.94;95691.72;5133316;27;20209;-60
2022/04/30 00:35:07;;;;;;;19.77;11.50;;;;;;;13.73;94.85;95694.78;5133121;27;20179;-62
2022/04/30 00:37:33;;;;;;;14.87;10.57;;;;;;;13.68;93.89;95698.00;5132977;27;20187;-63
2022/04/30 00:39:58;;;;;;;13.10;9.83;;;;;;;13.81;92.59;95688.03;5133145;27;20181;-64
2022/04/30 00:42:24;;;;;;;13.47;9.80;;;;;;;13.92;91.47;95688.63;5132993;27;20191;-62
2022/04/30 00:44:49;;;;;;;15.60;10.30;;;;;;;13.92;91.22;95688.63;5132782;27;20205;-62
2022/04/30 00:47:19;;;;;;;14.33;9.13;;;;;;;14.04;91.51;95690.78;5132787;27;20174;-63
2022/04/30 00:49:45;;;;;;;11.03;9.03;;;;;;;14.01;91.37;95680.63;5132897;27;20620;-62
2022/04/30 00:52:15;;;;;;;13.30;10.10;;;;;;;13.98;91.07;95684.19;5132857;27;20279;-65
2022/04/30 00:54:41;;;;;;;11.90;8.90;;;;;;;13.95;91.52;95682.28;5133760;27;20270;-65
2022/04/30 00:57:11;;;;;;;11.73;9.40;;;;;;;13.88;90.95;95676.91;5122608;28;20191;-65
2022/04/30 00:59:39;;;;;;;12.67;8.90;;;;;;;13.86;91.60;95679.31;5119530;28;20183;-65
2022/04/30 01:02:09;;;;;;;10.00;8.97;;;;;;;13.87;92.50;95686.34;5119060;28;20190;-65
2022/04/30 01:04:34;;;;;;;12.00;9.07;;;;;;;13.92;91.79;95677.66;5119118;28;20216;-65
2022/04/30 01:07:07;;;;;;;10.17;8.90;;;;;;;13.58;93.88;95679.72;5118774;28;20179;-66
2022/04/30 01:09:35;;;;;;;11.93;8.80;;;;;;;13.72;92.14;95678.72;5119440;28;20188;-59
2022/04/30 01:12:12;;;;;;;10.80;8.63;;;;;;;13.65;91.02;95674.13;5118853;28;20183;-59
2022/04/30 01:14:39;;;;;;;11.10;8.70;;;;;;;13.69;90.42;95674.84;5119491;28;20213;-58
2022/04/30 01:17:08;;;;;;;10.93;8.73;;;;;;;13.68;91.22;95670.56;5118764;28;20179;-59
2022/04/30 01:19:39;;;;;;;17.93;11.33;;;;;;;13.58;91.80;95668.75;5118584;28;20183;-59
2022/04/30 01:22:29;;;;;;;14.33;11.87;;;;;;;13.66;90.55;95661.97;5119205;28;20179;-58
2022/04/30 01:24:56;;;;;;;10.00;8.90;;;;;;;13.57;89.82;95663.69;5070937;28;20277;-58
2022/04/30 01:27:25;;;;;;;11.20;9.20;;;;;;;13.51;91.80;95663.38;5118811;28;20575;-58
2022/04/30 01:29:51;;;;;;;10.00;8.33;;;;;;;13.50;93.84;95656.34;5119023;28;20179;-58
2022/04/30 01:37:45;;;;;;;11.27;9.27;;;;;;;13.49;98.22;95649.31;5137095;28;20234;-61
2022/04/30 01:40:11;;;;;;;14.67;9.37;;;;;;;13.44;97.53;95647.00;5118445;28;20179;-61
2022/04/30 01:42:46;;;;;;;11.60;9.37;;;;;;;13.29;99.25;95640.19;5118368;28;20174;-61
2022/04/30 01:45:14;;;;;;;12.20;9.30;;;;;;;13.07;100.00;95637.00;5118459;28;20217;-61
2022/04/30 01:47:41;;;;;;;14.73;10.23;;;;;;;13.16;100.00;95641.97;5118813;28;20265;-58
2022/04/30 01:50:08;;;;;;;14.47;10.60;;;;;;;13.02;100.00;95636.69;5118754;28;20223;-65
2022/04/30 01:52:34;;;;;;;11.47;9.27;;;;;;;12.98;100.00;95636.72;5118130;28;20232;-65
2022/04/30 01:54:59;;;;;;;15.27;9.77;;;;;;;12.89;100.00;95633.69;5118423;28;20183;-65
2022/04/30 01:57:28;;;;;;;11.23;9.63;;;;;;;12.87;100.00;95635.28;5118368;28;20269;-65
2022/04/30 01:59:55;;;;;;;12.27;9.83;;;;;;;12.83;100.00;95637.28;5118029;28;20237;-66
2022/04/30 02:02:23;;;;;;;11.40;8.90;;;;;;;12.84;100.00;95625.13;5118094;28;20187;-65
2022/04/30 02:04:54;;;;;;;14.57;11.53;;;;;;;12.82;100.00;95627.53;5118620;28;20542;-58
2022/04/30 02:07:20;;;;;;;10.90;9.80;;;;;;;12.62;100.00;95629.34;5118062;27;20566;-65
2022/04/30 02:09:47;;;;;;;10.77;8.93;;;;;;;12.78;100.00;95621.28;5117372;28;20182;-65
2022/04/30 02:12:12;;;;;;;10.77;9.03;;;;;;;12.75;100.00;95627.63;5118276;28;20195;-65
2022/04/30 02:14:42;;;;;;;10.43;9.13;;;;;;;12.74;100.00;95623.31;5117766;28;20535;-65
2022/04/30 02:17:09;;;;;;;9.77;8.70;;;;;;;12.63;100.00;95619.91;5117910;28;20183;-66
2022/04/30 02:22:21;;;;;;;11.60;9.27;;;;;;;12.63;100.00;95608.97;5136250;28;20194;-58
2022/04/30 02:24:48;;;;;;;11.37;8.60;;;;;;;12.60;100.00;95605.09;5118160;28;20203;-65
2022/04/30 02:27:14;;;;;;;12.03;9.00;;;;;;;12.50;100.00;95597.75;5117767;28;20231;-58
2022/04/30 02:29:39;;;;;;;9.17;8.17;;;;;;;12.54;100.00;95600.47;5117752;28;20266;-58
2022/04/30 02:32:05;;;;;;;10.20;8.67;;;;;;;12.56;100.00;95600.81;5118147;28;20215;-58
2022/04/30 02:34:31;;;;;;;12.07;8.80;;;;;;;12.53;100.00;95604.41;5117525;28;20265;-58
2022/04/30 02:36:56;;;;;;;11.47;8.97;;;;;;;12.57;100.00;95600.41;5117598;28;20187;-58
2022/04/30 02:39:22;;;;;;;10.20;7.90;;;;;;;12.67;100.00;95593.25;5117555;28;20178;-58
2022/04/30 02:41:48;;;;;;;11.10;8.40;;;;;;;12.64;100.00;95599.56;5135634;28;20260;-57
2022/04/30 02:44:13;;;;;;;9.40;8.40;;;;;;;12.57;100.00;95588.72;5117323;28;20178;-65
2022/04/30 02:46:38;;;;;;;9.83;8.30;;;;;;;12.26;100.00;95587.13;5117458;28;20189;-65
2022/04/30 02:49:04;;;;;;;10.07;8.57;;;;;;;12.43;100.00;95572.44;5117952;28;20584;-65
2022/04/30 02:51:30;;;;;;;10.53;8.87;;;;;;;12.38;100.00;95567.41;5135639;28;20215;-65
2022/04/30 02:53:58;;;;;;;9.67;8.33;;;;;;;12.40;100.00;95573.25;5117866;28;20214;-66
2022/04/30 02:56:23;;;;;;;11.00;8.83;;;;;;;12.36;100.00;95567.84;5118141;28;20182;-65
2022/04/30 03:01:33;;;;;;;12.93;9.50;;;;;;;12.36;100.00;95567.03;5135896;28;20189;-65
2022/04/30 03:03:59;;;;;;;11.10;9.73;;;;;;;12.33;100.00;95568.66;5117148;28;20186;-58
2022/04/30 03:06:25;;;;;;;9.63;8.67;;;;;;;12.28;100.00;95565.59;5117311;28;20222;-58
2022/04/30 03:08:50;;;;;;;10.93;9.83;;;;;;;12.31;100.00;95562.03;5117069;28;20281;-58
2022/04/30 03:11:19;;;;;;;10.30;9.30;;;;;;;12.33;100.00;95557.69;5117139;28;20186;-59
2022/04/30 03:13:45;;;;;;;11.47;8.77;;;;;;;12.37;100.00;95549.41;5116960;28;20228;-58
2022/04/30 03:21:44;;;;;;;12.13;9.57;;;;;;;12.41;100.00;95541.94;5135466;28;20214;-58
2022/04/30 03:24:15;;;;;;;10.47;9.13;;;;;;;12.33;100.00;95546.75;5116629;28;20345;-58
2022/04/30 03:26:43;;;;;;;10.80;9.60;;;;;;;12.35;100.00;95538.13;5117440;28;20179;-58
2022/04/30 03:29:08;;;;;;;9.87;8.70;;;;;;;12.16;100.00;95546.94;5117044;28;20180;-58
2022/04/30 03:31:34;;;;;;;10.40;8.90;;;;;;;12.17;100.00;95540.28;5116650;28;20177;-58
2022/04/30 03:33:59;;;;;;;11.57;9.30;;;;;;;12.07;100.00;95543.94;5117365;28;20269;-58
2022/04/30 03:36:25;;;;;;;10.37;9.30;;;;;;;12.09;100.00;95547.81;5116731;28;20536;-62
2022/04/30 03:38:50;;;;;;;9.70;8.77;;;;;;;12.03;100.00;95554.13;5116862;28;20174;-65
2022/04/30 03:41:16;;;;;;;10.87;9.17;;;;;;;12.04;100.00;95552.94;5117497;28;20189;-66
2022/04/30 03:43:41;;;;;;;10.30;8.50;;;;;;;12.00;100.00;95547.53;5116409;28;20186;-65
2022/04/30 03:46:07;;;;;;;9.57;8.53;;;;;;;12.02;100.00;95558.06;5116495;28;20205;-64
2022/04/30 03:48:33;;;;;;;9.60;8.37;;;;;;;11.97;100.00;95555.75;5117167;28;20174;-65
2022/04/30 03:50:59;;;;;;;10.40;9.17;;;;;;;12.03;100.00;95554.94;5117061;28;20247;-65
2022/04/30 03:53:24;;;;;;;12.33;8.60;;;;;;;12.02;100.00;95558.84;5116910;28;20227;-65
2022/04/30 03:55:49;;;;;;;9.53;8.57;;;;;;;11.96;100.00;95554.22;5116994;28;20253;-60
2022/04/30 03:58:15;;;;;;;10.50;9.40;;;;;;;12.01;100.00;95556.50;5116688;28;20327;-65
2022/04/30 04:00:40;;;;;;;11.03;8.30;;;;;;;12.08;100.00;95559.16;5116585;28;20191;-65
2022/04/30 04:03:06;;;;;;;9.83;8.47;;;;;;;12.10;100.00;95560.28;5116411;28;20175;-65
2022/04/30 04:05:31;;;;;;;11.30;8.93;;;;;;;12.14;100.00;95560.28;5116249;28;20206;-65
2022/04/30 04:08:00;;;;;;;12.00;8.00;;;;;;;12.16;100.00;95569.63;5115981;28;20193;-65
2022/04/30 04:10:26;;;;;;;8.93;8.03;;;;;;;12.16;100.00;95563.38;5117062;28;20214;-65
2022/04/30 04:12:52;;;;;;;9.10;8.00;;;;;;;12.19;100.00;95568.03;5116702;28;20195;-58
2022/04/30 04:18:02;;;;;;;10.50;8.57;;;;;;;12.25;100.00;95571.88;5134943;28;20247;-59
2022/04/30 04:20:27;;;;;;;10.03;8.03;;;;;;;12.32;100.00;95566.31;5116193;28;20183;-58
2022/04/30 04:22:56;;;;;;;9.40;7.90;;;;;;;12.42;100.00;95573.63;5116082;28;20191;-58
2022/04/30 04:28:06;;;;;;;10.50;7.73;;;;;;;12.48;100.00;95571.97;5134437;28;20231;-58
2022/04/30 04:30:32;;;;;;;8.30;7.40;;;;;;;12.55;100.00;95582.84;5116125;27;20183;-58
2022/04/30 04:32:58;;;;;;;11.50;8.07;;;;;;;12.58;100.00;95579.28;5119616;28;20190;-61
2022/04/30 04:35:25;;;;;;;9.47;7.90;;;;;;;12.66;100.00;95575.25;5119176;28;20196;-58
2022/04/30 04:37:51;;;;;;;14.17;8.00;;;;;;;12.74;100.00;95582.97;5119340;28;20627;-58
2022/04/30 04:40:17;;;;;;;10.77;8.07;;;;;;;12.85;99.29;95580.09;5119334;28;20187;-58
2022/04/30 04:42:44;;;;;;;8.53;7.63;;;;;;;12.83;99.35;95574.25;5119522;28;20175;-58
2022/04/30 04:45:10;;;;;;;11.37;8.83;;;;;;;13.00;99.01;95584.22;5119758;28;20209;-58
2022/04/30 04:47:40;;;;;;;9.27;8.10;;;;;;;13.00;99.21;95578.72;5119681;28;20217;-58
2022/04/30 04:50:08;;;;;;;9.17;7.97;;;;;;;13.10;99.63;95578.59;5119407;28;20213;-58
2022/04/30 04:52:34;;;;;;;8.63;7.73;;;;;;;13.25;98.39;95581.88;5119556;28;20190;-58
2022/04/30 04:54:59;;;;;;;14.27;8.83;;;;;;;13.38;97.14;95588.34;5119073;28;20182;-58
2022/04/30 04:57:25;;;;;;;8.90;7.90;;;;;;;13.49;95.93;95583.47;5119400;28;20179;-58
2022/04/30 04:59:51;;;;;;;10.00;8.67;;;;;;;13.53;95.25;95584.19;5119621;28;20250;-58
2022/04/30 05:02:17;;;;;;;11.10;8.60;;;;;;;13.59;95.29;95581.72;5118932;28;20189;-58
2022/04/30 05:04:43;;;;;;;14.83;11.90;;;;;;;13.79;94.17;95590.78;5119317;28;20290;-58
2022/04/30 05:07:08;;;;;;;8.63;7.80;;;;;;;13.89;92.59;95596.09;5137446;28;20214;-58
2022/04/30 05:09:33;;;;;;;19.27;14.77;;;;;;;13.93;92.42;95596.81;5119532;28;20215;-61
2022/04/30 05:12:03;;;;;;;10.67;8.60;;;;;;;14.19;90.73;95592.41;5118814;28;20187;-60
2022/04/30 05:14:33;;;;;;;10.60;8.93;;;;;;;14.27;90.22;95586.38;5119407;28;20183;-60
2022/04/30 05:17:03;;;;;;;10.07;8.40;;;;;;;14.44;88.29;95582.53;5119450;28;20214;-60
2022/04/30 05:19:29;;;;;;;10.67;8.90;;;;;;;14.41;88.84;95588.88;5118962;28;20181;-60
2022/04/30 05:21:54;;;;;;;11.60;8.90;;;;;;;14.62;88.26;95598.66;5118754;28;20202;-60
2022/04/30 05:24:20;;;;;;;12.03;8.83;;;;;;;14.72;86.70;95598.41;5118586;27;20179;-60
2022/04/30 05:26:47;;;;;;;9.40;8.17;;;;;;;14.77;85.70;95594.41;5118958;28;20190;-60
2022/04/30 05:29:13;;;;;;;9.47;8.43;;;;;;;14.93;84.72;95599.97;5137236;28;20177;-62
2022/04/30 05:31:38;;;;;;;9.40;8.50;;;;;;;14.96;84.16;95596.34;5118714;28;20253;-62
2022/04/30 05:34:03;;;;;;;11.57;8.60;;;;;;;15.16;83.47;95605.34;5118924;28;20204;-63
2022/04/30 05:36:29;;;;;;;11.03;8.60;;;;;;;15.41;81.29;95606.34;5119079;28;20182;-62
2022/04/30 05:38:54;;;;;;;10.23;8.60;;;;;;;15.48;80.87;95619.94;5118607;28;20181;-62
2022/04/30 05:41:19;;;;;;;10.63;8.67;;;;;;;15.49;80.72;95621.50;5118548;28;20224;-63
2022/04/30 05:43:45;;;;;;;14.57;13.03;;;;;;;15.32;81.11;95614.41;5118435;28;20274;-62
2022/04/30 05:46:12;;;;;;;14.97;12.63;;;;;;;15.53;80.27;95616.69;5118621;28;20207;-59
2022/04/30 05:48:37;;;;;;;13.97;11.63;;;;;;;15.51;81.19;95615.56;5118169;28;20189;-65
2022/04/30 05:51:03;;;;;;;10.80;9.73;;;;;;;15.42;80.77;95618.94;5118284;28;20238;-65
2022/04/30 05:53:28;;;;;;;11.10;9.93;;;;;;;15.26;82.60;95626.34;5118591;28;20215;-65
2022/04/30 05:55:54;;;;;;;14.80;9.13;;;;;;;15.58;82.09;95621.69;5117847;28;20201;-65
2022/04/30 05:58:19;;;;;;;13.13;10.73;;;;;;;15.57;81.79;95622.88;5117993;28;20729;-65
2022/04/30 06:00:45;;;;;;;11.13;9.60;;;;;;;15.61;80.67;95626.34;5118214;28;20193;-65
2022/04/30 06:03:10;;;;;;;10.83;9.60;;;;;;;15.55;79.48;95622.53;5117924;28;20194;-63
2022/04/30 06:05:37;;;;;;;10.87;9.73;;;;;;;15.66;79.30;95628.56;5117843;28;20216;-65
2022/04/30 06:08:04;;;;;;;13.93;10.80;;;;;;;15.99;78.95;95615.56;5118133;28;20193;-65
2022/04/30 06:10:30;;;;;;;11.80;9.83;;;;;;;16.09;76.76;95609.00;5118117;28;20185;-65
2022/04/30 06:12:55;;;;;;;14.40;11.80;;;;;;;16.42;75.82;95619.53;5117894;28;20564;-64
2022/04/30 06:15:21;;;;;;;10.83;9.73;;;;;;;16.57;74.32;95619.91;5117601;28;20544;-65
2022/04/30 06:17:46;;;;;;;11.17;9.90;;;;;;;17.49;70.23;95615.25;5117878;28;20252;-65
2022/04/30 06:20:11;;;;;;;15.10;10.47;;;;;;;17.97;68.12;95606.59;5117359;28;20191;-65
2022/04/30 06:22:37;;;;;;;13.23;11.80;;;;;;;18.37;66.20;95615.91;5117938;28;20193;-61
2022/04/30 06:25:03;;;;;;;16.83;15.00;;;;;;;18.70;63.36;95617.88;5117858;28;20283;-61
2022/04/30 06:27:28;;;;;;;11.93;10.57;;;;;;;18.97;61.34;95614.50;5117688;28;20179;-60
2022/04/30 06:29:54;;;;;;;12.47;9.97;;;;;;;19.42;58.95;95612.78;5117967;28;20190;-60
2022/04/30 06:32:19;;;;;;;11.37;10.27;;;;;;;20.22;56.03;95613.56;5118463;28;20194;-60
2022/04/30 06:34:45;;;;;;;10.27;9.37;;;;;;;21.16;51.98;95607.84;5118538;28;20696;-61
2022/04/30 06:37:10;;;;;;;11.40;10.20;;;;;;;21.53;50.39;95610.03;5117764;28;20187;-61
2022/04/30 06:39:35;;;;;;;11.07;9.77;;;;;;;21.47;50.59;95609.13;5118087;28;20266;-59
2022/04/30 06:42:01;;;;;;;11.13;10.03;;;;;;;21.67;49.43;95612.13;5117820;28;20186;-59
2022/04/30 06:44:26;;;;;;;13.47;10.47;;;;;;;22.18;47.02;95615.59;5117521;28;20175;-65
2022/04/30 06:46:51;;;;;;;16.10;13.07;;;;;;;22.53;45.88;95613.09;5117287;28;20272;-65
2022/04/30 06:49:17;;;;;;;12.70;11.40;;;;;;;22.84;44.55;95615.47;5117155;28;20266;-65
2022/04/30 06:51:42;;;;;;;11.80;10.43;;;;;;;23.10;43.74;95611.69;5117487;28;20273;-65
2022/04/30 06:57:07;;;;;;;13.13;11.27;;;;;;;22.30;44.60;95611.81;5135965;28;20209;-65
2022/04/30 06:59:36;;;;;;;14.50;11.50;;;;;;;22.68;44.14;95604.78;5117794;28;20193;-63
2022/04/30 07:02:06;;;;;;;13.07;11.27;;;;;;;22.14;45.17;95608.66;5117226;28;20278;-59
2022/04/30 07:04:32;;;;;;;12.43;11.13;;;;;;;21.94;45.75;95609.28;5117666;28;20207;-59
2022/04/30 07:06:58;;;;;;;12.53;10.73;;;;;;;22.00;46.60;95599.03;5117542;28;20266;-59
2022/04/30 07:09:23;;;;;;;13.50;11.90;;;;;;;22.08;46.07;95594.63;5116926;28;20221;-58
2022/04/30 07:11:48;;;;;;;13.27;11.30;;;;;;;22.48;45.80;95601.84;5135359;28;20235;-59
2022/04/30 07:14:14;;;;;;;12.03;10.93;;;;;;;22.30;45.44;95606.25;5117359;28;20171;-59
2022/04/30 07:16:40;;;;;;;14.93;11.53;;;;;;;22.48;45.29;95604.63;5117198;28;20187;-61
2022/04/30 07:19:05;;;;;;;12.33;11.10;;;;;;;22.46;45.53;95608.63;5116911;28;20270;-62
2022/04/30 07:21:31;;;;;;;12.30;11.00;;;;;;;22.78;44.81;95609.78;5117278;28;20239;-59
2022/04/30 07:23:58;;;;;;;11.27;10.27;;;;;;;23.10;44.26;95608.88;5116547;28;20227;-58
2022/04/30 07:26:24;;;;;;;11.73;10.53;;;;;;;23.12;44.29;95605.63;5116556;28;20218;-59
2022/04/30 07:28:49;;;;;;;13.27;11.57;;;;;;;22.71;44.96;95601.03;5116769;28;20187;-58
2022/04/30 07:31:14;;;;;;;13.57;11.27;;;;;;;22.54;45.59;95603.47;5116852;28;20187;-59
2022/04/30 07:33:40;;;;;;;13.43;12.03;;;;;;;22.67;44.98;95600.44;5116918;28;20179;-59
2022/04/30 07:36:06;;;;;;;12.43;11.17;;;;;;;23.13;44.78;95609.94;5116943;28;20194;-62
2022/04/30 07:38:31;;;;;;;12.47;11.17;;;;;;;23.98;42.51;95606.84;5116748;28;20205;-58
2022/04/30 07:40:57;;;;;;;13.07;11.70;;;;;;;23.54;43.25;95606.13;5117136;28;20271;-58
2022/04/30 07:43:22;;;;;;;13.93;11.23;;;;;;;23.87;42.97;95609.44;5116542;28;20213;-59
2022/04/30 07:45:48;;;;;;;12.57;11.17;;;;;;;24.20;42.14;95607.16;5116574;28;20211;-58
2022/04/30 07:48:13;;;;;;;12.23;10.97;;;;;;;23.62;42.73;95602.47;5134945;28;20315;-59
2022/04/30 07:50:39;;;;;;;12.97;11.77;;;;;;;22.94;45.12;95608.59;5117128;28;20183;-59
2022/04/30 07:53:08;;;;;;;12.03;10.83;;;;;;;22.88;45.13;95621.63;5116094;28;20619;-59
2022/04/30 07:55:34;;;;;;;11.57;10.47;;;;;;;22.74;44.67;95606.44;5117100;28;20191;-65
2022/04/30 07:58:00;;;;;;;11.57;10.37;;;;;;;22.65;45.60;95608.53;5116225;28;20205;-59
2022/04/30 08:00:25;;;;;;;12.37;11.07;;;;;;;22.24;45.75;95610.94;5116260;28;20236;-59
2022/04/30 08:02:54;;;;;;;11.47;10.37;;;;;;;22.12;45.86;95611.94;5116239;28;20187;-59
2022/04/30 08:05:19;;;;;;;12.30;11.07;;;;;;;22.24;46.25;95616.50;5116300;27;20195;-59
2022/04/30 08:07:44;;;;;;;12.97;11.30;;;;;;;22.25;45.72;95615.25;5119120;28;20243;-58
2022/04/30 08:10:09;;;;;;;12.43;11.23;;;;;;;22.29;46.04;95609.53;5120148;28;20221;-59
2022/04/30 08:12:35;;;;;;;13.23;11.53;;;;;;;22.30;46.27;95613.84;5120014;28;20208;-58
2022/04/30 08:15:00;;;;;;;12.10;10.93;;;;;;;22.18;45.51;95617.63;5138138;28;20535;-58
2022/04/30 08:17:27;;;;;;;15.20;13.63;;;;;;;22.36;45.16;95615.50;5119842;28;20175;-58
2022/04/30 08:19:53;;;;;;;14.53;12.53;;;;;;;22.07;45.75;95614.63;5119804;28;20180;-58
2022/04/30 08:22:18;;;;;;;13.23;11.93;;;;;;;22.21;45.44;95620.22;5119541;28;20665;-58
2022/04/30 08:24:43;;;;;;;12.97;11.63;;;;;;;22.31;45.38;95630.06;5119696;28;20302;-58
2022/04/30 08:27:09;;;;;;;12.77;11.40;;;;;;;22.80;43.55;95626.03;5119737;28;20184;-60
2022/04/30 08:29:34;;;;;;;13.33;11.97;;;;;;;22.87;43.39;95631.25;5120038;28;20215;-65
2022/04/30 08:31:59;;;;;;;14.83;11.87;;;;;;;23.19;42.79;95638.69;5119725;28;20179;-65
2022/04/30 08:34:25;;;;;;;13.67;12.37;;;;;;;23.15;41.87;95635.31;5119587;28;20183;-58
2022/04/30 08:36:50;;;;;;;14.63;12.40;;;;;;;23.59;40.75;95641.69;5119592;28;20175;-58
2022/04/30 08:39:15;;;;;;;15.17;12.60;;;;;;;23.05;41.49;95636.66;5119463;28;20175;-58
2022/04/30 08:41:42;;;;;;;16.60;14.80;;;;;;;23.44;40.85;95646.50;5119345;28;20396;-58
2022/04/30 08:44:15;;;;;;;15.10;13.10;;;;;;;23.55;41.01;95649.47;5119631;28;20186;-60
2022/04/30 08:46:42;;;;;;;14.17;12.77;;;;;;;23.43;41.02;95653.34;5119245;28;20198;-58
2022/04/30 08:49:08;;;;;;;14.57;12.70;;;;;;;23.65;40.55;95650.94;5119572;28;20186;-64
2022/04/30 08:51:34;;;;;;;15.30;13.80;;;;;;;23.12;40.69;95642.59;5118892;28;20278;-58
2022/04/30 08:53:59;;;;;;;15.40;13.80;;;;;;;23.38;40.11;95637.28;5119309;28;20268;-58
2022/04/30 08:56:25;;;;;;;15.93;14.03;;;;;;;23.66;40.44;95649.66;5119573;28;20187;-59
2022/04/30 08:59:03;;;;;;;15.77;13.67;;;;;;;23.76;40.33;95645.53;5119638;28;20175;-58
2022/04/30 09:01:29;;;;;;;16.67;13.73;;;;;;;23.86;40.03;95641.38;5119486;28;20198;-58
2022/04/30 09:03:56;;;;;;;16.33;14.83;;;;;;;23.05;41.86;95651.34;5119203;28;20179;-58
2022/04/30 09:06:24;;;;;;;16.40;14.63;;;;;;;22.89;41.56;95640.66;5118934;28;20233;-62
2022/04/30 09:08:52;;;;;;;15.93;14.23;;;;;;;22.77;42.18;95640.91;5119440;28;20182;-58
2022/04/30 09:11:26;;;;;;;17.60;15.37;;;;;;;22.43;43.02;95645.75;5118855;28;20196;-60
2022/04/30 09:13:53;;;;;;;17.40;15.60;;;;;;;23.28;42.13;95644.97;5119467;28;20179;-60
2022/04/30 09:16:23;;;;;;;18.03;16.23;;;;;;;23.52;41.23;95647.69;5136988;28;20191;-61
2022/04/30 09:18:52;;;;;;;15.03;13.63;;;;;;;23.88;40.41;95647.22;5118500;28;20197;-62
2022/04/30 09:21:18;;;;;;;16.43;14.73;;;;;;;23.35;40.76;95643.81;5118886;28;20562;-61
2022/04/30 09:23:44;;;;;;;16.10;14.60;;;;;;;24.18;40.18;95640.38;5118567;28;20183;-62
2022/04/30 09:26:11;;;;;;;16.37;14.83;;;;;;;24.30;40.07;95645.63;5118610;28;20257;-63
2022/04/30 09:28:39;;;;;;;16.27;14.57;;;;;;;24.07;40.60;95648.59;5118541;28;20183;-60
2022/04/30 09:31:14;;;;;;;16.80;15.20;;;;;;;23.35;41.54;95641.81;5118715;28;20186;-60
2022/04/30 09:33:48;;;;;;;15.50;14.00;;;;;;;23.21;42.60;95642.56;5118418;28;20183;-60
2022/04/30 09:38:58;;;;;;;15.00;13.40;;;;;;;22.79;43.85;95636.41;5136930;28;20198;-59
2022/04/30 09:41:26;;;;;;;14.80;13.40;;;;;;;22.63;44.17;95644.41;5118907;28;20191;-60
2022/04/30 09:44:22;;;;;;;16.40;14.70;;;;;;;22.72;44.67;95641.56;5118481;28;20523;-66
2022/04/30 09:46:48;;;;;;;15.33;13.70;;;;;;;22.70;43.47;95644.06;5134419;28;20289;-60
2022/04/30 09:54:43;;;;;;;15.23;13.53;;;;;;;23.26;43.03;95644.69;5136428;28;20243;-59
2022/04/30 09:57:09;;;;;;;14.60;12.53;;;;;;;23.00;43.03;95651.22;5118141;28;20195;-59
2022/04/30 09:59:37;;;;;;;14.70;12.73;;;;;;;22.46;43.44;95647.59;5117867;28;20210;-59
2022/04/30 10:02:05;;;;;;;14.37;12.87;;;;;;;22.29;44.22;95648.50;5118739;28;20212;-62
2022/04/30 10:04:32;;;;;;;13.73;12.33;;;;;;;22.29;44.71;95652.03;5118007;28;20190;-59
2022/04/30 10:07:00;;;;;;;14.17;12.67;;;;;;;22.57;44.08;95646.34;5117951;28;20185;-63
2022/04/30 10:09:36;;;;;;;15.07;13.67;;;;;;;22.20;44.88;95652.09;5118220;28;20183;-64
2022/04/30 10:12:42;;;;;;;13.50;12.20;;;;;;;22.27;44.87;95660.09;5118263;28;20190;-63
2022/04/30 10:15:44;;;;;;;13.50;12.10;;;;;;;22.29;44.98;95654.06;5118672;28;20186;-64
2022/04/30 10:18:10;;;;;;;13.73;12.20;;;;;;;22.21;45.16;95658.41;5118488;28;20175;-63
2022/04/30 10:20:35;;;;;;;13.50;11.83;;;;;;;22.39;45.18;95658.31;5136348;28;20258;-59
2022/04/30 10:23:03;;;;;;;14.03;12.63;;;;;;;22.58;44.79;95659.00;5118208;28;20220;-59
2022/04/30 10:25:32;;;;;;;13.07;11.73;;;;;;;22.46;44.76;95664.31;5117841;28;20211;-59
2022/04/30 10:27:58;;;;;;;12.93;11.53;;;;;;;22.50;45.40;95653.00;5117634;28;20298;-59
2022/04/30 10:30:24;;;;;;;14.37;12.60;;;;;;;22.86;44.64;95651.97;5116543;28;20191;-59
2022/04/30 10:33:06;;;;;;;19.23;13.30;;;;;;;22.66;45.51;95660.19;5118164;28;20655;-60
2022/04/30 10:35:44;;;;;;;13.73;11.83;;;;;;;22.69;46.24;95670.38;5117439;28;20191;-59
2022/04/30 10:38:18;;;;;;;14.70;13.13;;;;;;;22.26;46.24;95663.34;5117966;28;20190;-61
2022/04/30 10:40:47;;;;;;;15.17;13.67;;;;;;;21.58;47.94;95665.00;5118116;28;20191;-59
2022/04/30 10:43:16;;;;;;;14.13;12.67;;;;;;;21.91;48.14;95667.84;5117542;28;20183;-63
2022/04/30 10:45:42;;;;;;;13.13;11.57;;;;;;;21.56;49.35;95666.72;5117847;28;20207;-62
2022/04/30 10:48:07;;;;;;;12.63;11.33;;;;;;;21.30;49.71;95671.06;5117353;28;20549;-62
2022/04/30 10:50:33;;;;;;;12.53;11.20;;;;;;;21.45;50.63;95664.41;5117213;28;20206;-62
2022/04/30 10:53:00;;;;;;;12.37;11.13;;;;;;;21.48;51.00;95671.81;5116974;28;20179;-63
2022/04/30 10:55:27;;;;;;;13.20;11.47;;;;;;;21.24;51.84;95659.81;5117058;28;20191;-63
2022/04/30 10:57:53;;;;;;;12.57;11.33;;;;;;;21.47;51.25;95666.72;5117831;28;20183;-63
2022/04/30 11:00:18;;;;;;;12.13;10.87;;;;;;;21.44;51.16;95662.88;5117270;28;20286;-66
2022/04/30 11:02:44;;;;;;;15.47;10.93;;;;;;;21.15;52.43;95657.06;5118001;28;20179;-65
2022/04/30 11:05:22;;;;;;;11.77;10.67;;;;;;;21.18;54.68;95658.91;5116724;28;20199;-66
2022/04/30 11:07:48;;;;;;;11.40;10.20;;;;;;;21.03;69.16;95655.22;5117001;28;20273;-66
2022/04/30 11:10:13;;;;;;;12.40;11.10;;;;;;;20.85;75.69;95658.00;5117500;28;20218;-66
2022/04/30 11:12:39;;;;;;;12.13;10.93;;;;;;;20.71;75.86;95650.28;5116848;28;20210;-66
2022/04/30 11:15:05;;;;;;;12.73;10.93;;;;;;;20.55;75.75;95664.47;5117462;28;20286;-59
2022/04/30 11:17:42;;;;;;;12.63;11.33;;;;;;;20.81;79.33;95651.81;5116968;28;20187;-61
2022/04/30 11:20:08;;;;;;;13.23;11.77;;;;;;;21.31;82.89;95653.94;5116710;28;20187;-61
2022/04/30 11:22:33;;;;;;;13.20;11.90;;;;;;;21.11;78.51;95645.34;5116858;28;20183;-61
2022/04/30 11:24:59;;;;;;;12.07;10.87;;;;;;;21.01;76.67;95652.13;5116870;28;20211;-61
2022/04/30 11:27:24;;;;;;;16.30;14.40;;;;;;;20.71;75.71;95649.50;5116828;28;20183;-61
2022/04/30 11:29:57;;;;;;;15.57;11.77;;;;;;;20.34;75.02;95651.47;5117384;28;20203;-61
2022/04/30 11:32:24;;;;;;;11.97;10.77;;;;;;;20.50;72.87;95651.19;5116469;28;20270;-61
2022/04/30 11:34:50;;;;;;;11.73;10.57;;;;;;;20.69;69.16;95652.72;5116787;28;20301;-66
2022/04/30 11:37:15;;;;;;;11.80;10.70;;;;;;;20.88;67.86;95654.28;5116571;28;20191;-63
2022/04/30 11:39:41;;;;;;;11.80;10.40;;;;;;;21.18;66.44;95650.59;5116663;28;20194;-62
2022/04/30 11:42:06;;;;;;;11.60;10.50;;;;;;;20.91;64.57;95647.78;5116433;28;20190;-63
2022/04/30 11:44:32;;;;;;;11.87;10.10;;;;;;;20.91;64.42;95647.78;5116832;28;20183;-62
2022/04/30 11:46:57;;;;;;;14.20;12.27;;;;;;;20.99;64.57;95654.63;5134790;28;20167;-62
2022/04/30 11:49:25;;;;;;;11.70;10.50;;;;;;;20.84;63.57;95648.13;5116570;28;20226;-62
2022/04/30 11:51:54;;;;;;;11.43;10.03;;;;;;;20.76;63.50;95662.78;5116386;28;20225;-66